createdAt,value
2017-11-27T00:00:29.596Z,6.39
2017-11-27T00:01:29.533Z,6.39
2017-11-27T00:02:29.473Z,6.39
2017-11-27T00:03:29.419Z,6.39
2017-11-27T00:04:29.341Z,6.43
2017-11-27T00:05:29.281Z,6.36
2017-11-27T00:06:29.224Z,6.38
2017-11-27T00:07:29.149Z,6.27
2017-11-27T00:08:29.092Z,6.33
2017-11-27T00:09:29.026Z,6.27
2017-11-27T00:10:28.972Z,6.32
2017-11-27T00:11:28.916Z,6.28
2017-11-27T00:12:28.838Z,6.32
2017-11-27T00:13:28.775Z,6.27
2017-11-27T00:14:28.705Z,6.24
2017-11-27T00:15:28.645Z,6.20
2017-11-27T00:16:28.583Z,6.27
2017-11-27T00:17:28.525Z,6.24
2017-11-27T00:18:28.474Z,6.33
2017-11-27T00:19:28.413Z,6.30
2017-11-27T00:20:28.332Z,6.27
2017-11-27T00:21:28.265Z,6.24
2017-11-27T00:22:28.207Z,6.25
2017-11-27T00:23:28.140Z,6.24
2017-11-27T00:24:28.082Z,6.21
2017-11-27T00:25:28.020Z,6.24
2017-11-27T00:26:27.965Z,6.21
2017-11-27T00:27:27.891Z,6.19
2017-11-27T00:28:27.824Z,6.20
2017-11-27T00:29:27.764Z,6.20
2017-11-27T00:30:27.702Z,6.21
2017-11-27T00:31:27.636Z,6.20
2017-11-27T00:32:27.575Z,6.13
2017-11-27T00:33:27.518Z,6.11
2017-11-27T00:34:27.463Z,6.19
2017-11-27T00:35:27.383Z,6.25
2017-11-27T00:36:27.322Z,6.21
2017-11-27T00:37:27.250Z,6.21
2017-11-27T00:38:27.189Z,6.24
2017-11-27T00:39:27.131Z,6.21
2017-11-27T00:40:27.070Z,6.21
2017-11-27T00:41:27.010Z,6.14
2017-11-27T00:42:26.960Z,6.20
2017-11-27T00:43:26.877Z,6.16
2017-11-27T00:44:26.815Z,6.17
2017-11-27T00:45:26.748Z,6.17
2017-11-27T00:46:26.696Z,6.19
2017-11-27T00:47:26.627Z,6.08
2017-11-27T00:48:26.575Z,6.11
2017-11-27T00:49:26.511Z,6.14
2017-11-27T00:50:26.434Z,6.13
2017-11-27T00:51:26.378Z,6.16
2017-11-27T00:52:26.313Z,6.20
2017-11-27T00:53:26.242Z,6.21
2017-11-27T00:54:26.180Z,6.27
2017-11-27T00:55:26.121Z,6.27
2017-11-27T00:56:26.080Z,6.10
2017-11-27T00:57:26.009Z,6.21
2017-11-27T00:58:25.929Z,6.10
2017-11-27T00:59:25.869Z,6.19
2017-11-27T01:00:25.807Z,6.17
2017-11-27T01:01:25.762Z,6.21
2017-11-27T01:02:25.675Z,6.20
2017-11-27T01:03:25.619Z,6.16
2017-11-27T01:04:25.562Z,6.39
2017-11-27T01:05:25.507Z,6.25
2017-11-27T01:06:25.422Z,6.27
2017-11-27T01:07:25.365Z,6.32
2017-11-27T01:08:25.292Z,6.27
2017-11-27T01:09:25.233Z,6.27
2017-11-27T01:10:25.178Z,6.33
2017-11-27T01:11:25.115Z,6.30
2017-11-27T01:12:25.057Z,6.39
2017-11-27T01:13:24.987Z,6.25
2017-11-27T01:14:24.920Z,6.30
2017-11-27T01:15:24.850Z,6.10
2017-11-27T01:16:24.791Z,6.27
2017-11-27T01:17:24.727Z,6.24
2017-11-27T01:18:24.672Z,6.16
2017-11-27T01:19:24.611Z,6.28
2017-11-27T01:20:24.541Z,6.25
2017-11-27T01:21:24.476Z,6.24
2017-11-27T01:22:24.416Z,6.19
2017-11-27T01:23:24.345Z,6.27
2017-11-27T01:24:24.311Z,6.32
2017-11-27T01:25:24.224Z,6.36
2017-11-27T01:26:24.169Z,6.32
2017-11-27T01:27:24.122Z,6.35
2017-11-27T01:28:24.052Z,6.25
2017-11-27T01:29:23.972Z,6.39
2017-11-27T01:30:23.908Z,6.28
2017-11-27T01:31:23.839Z,6.25
2017-11-27T01:32:23.779Z,6.35
2017-11-27T01:33:23.719Z,6.35
2017-11-27T01:34:23.660Z,6.24
2017-11-27T01:35:23.604Z,6.25
2017-11-27T01:36:23.530Z,6.21
2017-11-27T01:37:23.462Z,6.32
2017-11-27T01:38:23.408Z,6.27
2017-11-27T01:39:23.335Z,6.25
2017-11-27T01:40:23.277Z,6.25
2017-11-27T01:41:23.221Z,6.27
2017-11-27T01:42:23.194Z,6.19
2017-11-27T01:43:23.114Z,6.21
2017-11-27T01:44:23.026Z,6.30
2017-11-27T01:45:22.965Z,6.27
2017-11-27T01:46:22.893Z,6.25
2017-11-27T01:47:22.832Z,6.35
2017-11-27T01:48:22.771Z,6.25
2017-11-27T01:49:22.714Z,6.32
2017-11-27T01:50:22.640Z,6.27
2017-11-27T01:51:22.602Z,6.32
2017-11-27T01:52:22.520Z,6.32
2017-11-27T01:53:22.457Z,6.32
2017-11-27T01:54:22.392Z,6.33
2017-11-27T01:55:22.328Z,6.25
2017-11-27T01:56:22.269Z,6.21
2017-11-27T01:57:22.207Z,6.27
2017-11-27T01:58:22.153Z,6.20
2017-11-27T01:59:22.080Z,6.13
2017-11-27T02:00:22.012Z,6.21
2017-11-27T02:01:21.952Z,6.17
2017-11-27T02:02:21.883Z,6.17
2017-11-27T02:03:21.824Z,6.20
2017-11-27T02:04:21.763Z,6.16
2017-11-27T02:05:21.703Z,6.24
2017-11-27T02:06:21.650Z,6.19
2017-11-27T02:07:21.574Z,6.17
2017-11-27T02:08:21.512Z,6.08
2017-11-27T02:09:21.447Z,6.03
2017-11-27T02:10:21.378Z,6.13
2017-11-27T02:11:21.319Z,6.14
2017-11-27T02:12:21.259Z,6.10
2017-11-27T02:13:21.200Z,6.21
2017-11-27T02:14:21.146Z,6.13
2017-11-27T02:15:21.092Z,6.08
2017-11-27T02:16:21.010Z,6.16
2017-11-27T02:17:20.935Z,6.14
2017-11-27T02:18:20.873Z,6.17
2017-11-27T02:19:20.815Z,6.27
2017-11-27T02:20:20.754Z,6.24
2017-11-27T02:21:20.700Z,6.25
2017-11-27T02:22:20.624Z,6.21
2017-11-27T02:23:20.559Z,6.21
2017-11-27T02:24:20.499Z,6.19
2017-11-27T02:25:20.434Z,6.08
2017-11-27T02:26:20.371Z,6.16
2017-11-27T02:27:20.311Z,6.16
2017-11-27T02:28:20.251Z,6.13
2017-11-27T02:29:20.196Z,6.10
2017-11-27T02:30:20.144Z,6.10
2017-11-27T02:31:20.054Z,6.17
2017-11-27T02:32:19.994Z,6.17
2017-11-27T02:33:19.934Z,6.14
2017-11-27T02:34:19.864Z,6.13
2017-11-27T02:35:19.805Z,6.06
2017-11-27T02:36:19.750Z,6.16
2017-11-27T02:37:19.692Z,6.10
2017-11-27T02:38:19.612Z,6.11
2017-11-27T02:39:19.550Z,6.10
2017-11-27T02:40:19.479Z,6.08
2017-11-27T02:41:19.420Z,6.03
2017-11-27T02:42:19.358Z,6.10
2017-11-27T02:43:19.379Z,6.03
2017-11-27T02:44:19.248Z,6.08
2017-11-27T02:45:19.169Z,6.13
2017-11-27T02:46:19.105Z,6.08
2017-11-27T02:47:19.036Z,6.05
2017-11-27T02:48:18.975Z,6.06
2017-11-27T02:49:18.920Z,6.11
2017-11-27T02:50:18.853Z,6.03
2017-11-27T02:51:18.797Z,6.13
2017-11-27T02:52:18.748Z,5.99
2017-11-27T02:53:18.667Z,5.99
2017-11-27T02:54:18.600Z,5.99
2017-11-27T02:55:18.530Z,5.96
2017-11-27T02:56:18.469Z,5.98
2017-11-27T02:57:18.415Z,5.98
2017-11-27T02:58:18.356Z,6.02
2017-11-27T02:59:18.293Z,6.01
2017-11-27T03:00:18.222Z,5.99
2017-11-27T03:01:18.164Z,6.06
2017-11-27T03:02:18.087Z,6.02
2017-11-27T03:03:18.027Z,5.99
2017-11-27T03:04:17.969Z,5.96
2017-11-27T03:05:17.904Z,6.01
2017-11-27T03:06:17.849Z,5.96
2017-11-27T03:07:17.776Z,6.03
2017-11-27T03:08:17.717Z,5.99
2017-11-27T03:09:17.646Z,6.02
2017-11-27T03:10:17.579Z,6.02
2017-11-27T03:11:17.528Z,5.93
2017-11-27T03:12:17.460Z,6.03
2017-11-27T03:13:17.397Z,6.06
2017-11-27T03:14:17.344Z,6.03
2017-11-27T03:15:17.269Z,5.93
2017-11-27T03:16:17.206Z,5.96
2017-11-27T03:17:17.150Z,5.99
2017-11-27T03:18:17.072Z,5.99
2017-11-27T03:19:17.015Z,6.02
2017-11-27T03:20:16.957Z,5.99
2017-11-27T03:21:16.898Z,6.08
2017-11-27T03:22:16.822Z,6.01
2017-11-27T03:23:16.763Z,6.02
2017-11-27T03:24:16.713Z,5.96
2017-11-27T03:25:16.631Z,5.95
2017-11-27T03:26:16.574Z,5.99
2017-11-27T03:27:16.514Z,5.99
2017-11-27T03:28:16.449Z,5.99
2017-11-27T03:29:16.398Z,5.93
2017-11-27T03:30:16.341Z,5.96
2017-11-27T03:31:16.261Z,5.98
2017-11-27T03:32:16.194Z,5.93
2017-11-27T03:33:16.125Z,5.99
2017-11-27T03:34:16.063Z,5.93
2017-11-27T03:35:16.006Z,5.90
2017-11-27T03:36:15.946Z,6.01
2017-11-27T03:37:15.894Z,5.90
2017-11-27T03:38:15.821Z,5.93
2017-11-27T03:39:15.750Z,5.92
2017-11-27T03:40:15.680Z,5.93
2017-11-27T03:41:15.629Z,5.93
2017-11-27T03:42:15.558Z,5.93
2017-11-27T03:43:15.500Z,5.93
2017-11-27T03:44:15.442Z,5.96
2017-11-27T03:45:15.388Z,5.93
2017-11-27T03:46:15.301Z,5.93
2017-11-27T03:47:15.252Z,5.93
2017-11-27T03:48:15.174Z,5.88
2017-11-27T03:49:15.124Z,5.96
2017-11-27T03:50:15.054Z,5.92
2017-11-27T03:51:14.995Z,5.96
2017-11-27T03:52:14.941Z,5.99
2017-11-27T03:53:14.867Z,5.93
2017-11-27T03:54:14.802Z,5.95
2017-11-27T03:55:14.728Z,5.93
2017-11-27T03:56:14.671Z,5.88
2017-11-27T03:57:14.624Z,5.95
2017-11-27T03:58:14.548Z,5.93
2017-11-27T03:59:14.495Z,5.96
2017-11-27T04:00:14.424Z,5.85
2017-11-27T04:01:14.359Z,6.01
2017-11-27T04:02:14.293Z,6.02
2017-11-27T04:03:14.222Z,5.99
2017-11-27T04:04:14.169Z,5.98
2017-11-27T04:05:14.102Z,5.96
2017-11-27T04:06:14.044Z,5.95
2017-11-27T04:07:13.988Z,5.85
2017-11-27T04:08:13.912Z,5.93
2017-11-27T04:09:13.849Z,5.83
2017-11-27T04:10:13.780Z,5.83
2017-11-27T04:11:13.718Z,5.87
2017-11-27T04:12:13.666Z,5.75
2017-11-27T04:13:13.598Z,5.73
2017-11-27T04:14:13.545Z,5.75
2017-11-27T04:15:13.486Z,5.77
2017-11-27T04:16:13.405Z,5.59
2017-11-27T04:17:13.383Z,5.67
2017-11-27T04:18:13.279Z,5.55
2017-11-27T04:19:13.218Z,5.51
2017-11-27T04:20:13.152Z,5.52
2017-11-27T04:21:13.096Z,5.38
2017-11-27T04:22:13.039Z,5.42
2017-11-27T04:23:12.962Z,5.40
2017-11-27T04:24:12.895Z,5.48
2017-11-27T04:25:12.827Z,5.44
2017-11-27T04:26:12.767Z,5.45
2017-11-27T04:27:12.711Z,5.41
2017-11-27T04:28:12.651Z,5.49
2017-11-27T04:29:12.596Z,5.45
2017-11-27T04:30:12.523Z,5.47
2017-11-27T04:31:12.453Z,5.48
2017-11-27T04:32:12.383Z,5.42
2017-11-27T04:33:12.324Z,5.47
2017-11-27T04:34:12.259Z,5.45
2017-11-27T04:35:12.199Z,5.47
2017-11-27T04:36:12.143Z,5.42
2017-11-27T04:37:12.082Z,5.44
2017-11-27T04:38:12.004Z,5.41
2017-11-27T04:39:11.947Z,5.48
2017-11-27T04:40:11.875Z,5.55
2017-11-27T04:41:11.812Z,5.52
2017-11-27T04:42:11.750Z,5.55
2017-11-27T04:43:11.695Z,5.56
2017-11-27T04:44:11.643Z,5.60
2017-11-27T04:45:11.565Z,5.66
2017-11-27T04:46:11.488Z,5.63
2017-11-27T04:47:11.425Z,5.66
2017-11-27T04:48:11.364Z,5.56
2017-11-27T04:49:11.333Z,5.59
2017-11-27T04:50:11.248Z,5.42
2017-11-27T04:51:11.196Z,5.51
2017-11-27T04:52:11.114Z,5.52
2017-11-27T04:53:11.046Z,5.48
2017-11-27T04:54:10.977Z,5.44
2017-11-27T04:55:10.931Z,5.41
2017-11-27T04:56:10.856Z,5.41
2017-11-27T04:57:10.799Z,5.49
2017-11-27T04:58:10.744Z,5.44
2017-11-27T04:59:10.663Z,5.47
2017-11-27T05:00:10.609Z,5.49
2017-11-27T05:01:10.531Z,5.44
2017-11-27T05:02:10.470Z,5.44
2017-11-27T05:03:10.409Z,5.52
2017-11-27T05:04:10.352Z,5.52
2017-11-27T05:05:10.296Z,5.51
2017-11-27T05:06:10.216Z,5.51
2017-11-27T05:07:10.153Z,5.56
2017-11-27T05:08:10.088Z,5.48
2017-11-27T05:09:10.024Z,5.41
2017-11-27T05:10:09.961Z,5.44
2017-11-27T05:11:09.904Z,5.45
2017-11-27T05:12:09.832Z,5.47
2017-11-27T05:13:09.771Z,5.44
2017-11-27T05:14:09.705Z,5.52
2017-11-27T05:15:09.635Z,5.49
2017-11-27T05:16:09.579Z,5.58
2017-11-27T05:17:09.515Z,5.48
2017-11-27T05:18:09.460Z,5.52
2017-11-27T05:19:09.400Z,5.59
2017-11-27T05:20:09.324Z,5.56
2017-11-27T05:21:09.277Z,5.58
2017-11-27T05:22:09.195Z,5.55
2017-11-27T05:23:09.130Z,5.51
2017-11-27T05:24:09.070Z,5.52
2017-11-27T05:25:09.009Z,5.49
2017-11-27T05:26:08.951Z,5.52
2017-11-27T05:27:08.877Z,5.48
2017-11-27T05:28:08.824Z,5.51
2017-11-27T05:29:08.749Z,5.51
2017-11-27T05:30:08.686Z,5.59
2017-11-27T05:31:08.622Z,5.58
2017-11-27T05:32:08.563Z,5.51
2017-11-27T05:33:08.521Z,5.55
2017-11-27T05:34:08.450Z,5.60
2017-11-27T05:35:08.369Z,5.56
2017-11-27T05:36:08.305Z,5.56
2017-11-27T05:37:08.234Z,5.59
2017-11-27T05:38:08.176Z,5.63
2017-11-27T05:39:08.112Z,5.62
2017-11-27T05:40:08.049Z,5.70
2017-11-27T05:41:07.988Z,5.66
2017-11-27T05:42:07.923Z,5.69
2017-11-27T05:43:07.859Z,5.67
2017-11-27T05:44:07.789Z,5.65
2017-11-27T05:45:07.730Z,5.69
2017-11-27T05:46:07.667Z,5.69
2017-11-27T05:47:07.609Z,5.66
2017-11-27T05:48:07.553Z,5.65
2017-11-27T05:49:07.482Z,5.65
2017-11-27T05:50:07.413Z,5.66
2017-11-27T05:51:07.344Z,5.62
2017-11-27T05:52:07.282Z,5.66
2017-11-27T05:53:07.224Z,5.60
2017-11-27T05:54:07.157Z,5.51
2017-11-27T05:55:07.093Z,5.56
2017-11-27T05:56:07.032Z,5.51
2017-11-27T05:57:06.968Z,5.51
2017-11-27T05:58:06.927Z,5.51
2017-11-27T05:59:06.837Z,5.48
2017-11-27T06:00:06.776Z,5.45
2017-11-27T06:01:06.717Z,5.51
2017-11-27T06:02:06.659Z,5.42
2017-11-27T06:03:06.602Z,5.41
2017-11-27T06:04:06.527Z,5.44
2017-11-27T06:05:06.460Z,5.41
2017-11-27T06:06:06.399Z,5.37
2017-11-27T06:07:06.332Z,5.33
2017-11-27T06:08:06.272Z,5.24
2017-11-27T06:09:06.205Z,5.29
2017-11-27T06:10:06.155Z,5.26
2017-11-27T06:11:06.078Z,5.20
2017-11-27T06:12:06.015Z,5.23
2017-11-27T06:13:05.946Z,5.15
2017-11-27T06:14:05.885Z,5.22
2017-11-27T06:15:05.826Z,5.17
2017-11-27T06:16:05.763Z,5.12
2017-11-27T06:17:05.711Z,5.09
2017-11-27T06:18:05.636Z,5.05
2017-11-27T06:19:05.566Z,5.08
2017-11-27T06:20:05.501Z,5.02
2017-11-27T06:21:05.436Z,5.06
2017-11-27T06:22:05.375Z,5.05
2017-11-27T06:23:05.311Z,4.99
2017-11-27T06:24:05.247Z,5.09
2017-11-27T06:25:05.195Z,5.04
2017-11-27T06:26:05.121Z,5.06
2017-11-27T06:27:05.056Z,5.09
2017-11-27T06:28:04.987Z,5.08
2017-11-27T06:29:04.934Z,4.90
2017-11-27T06:30:04.866Z,4.96
2017-11-27T06:31:04.810Z,4.97
2017-11-27T06:32:04.736Z,4.94
2017-11-27T06:33:04.676Z,4.88
2017-11-27T06:34:04.608Z,4.87
2017-11-27T06:35:04.539Z,4.83
2017-11-27T06:36:04.507Z,4.87
2017-11-27T06:37:04.417Z,4.84
2017-11-27T06:38:04.351Z,4.84
2017-11-27T06:39:04.285Z,4.79
2017-11-27T06:40:04.223Z,4.83
2017-11-27T06:41:04.152Z,4.83
2017-11-27T06:42:04.091Z,4.77
2017-11-27T06:43:04.031Z,4.75
2017-11-27T06:44:03.970Z,4.69
2017-11-27T06:45:03.915Z,4.83
2017-11-27T06:46:03.837Z,4.71
2017-11-27T06:47:03.775Z,4.71
2017-11-27T06:48:03.704Z,4.69
2017-11-27T06:49:03.647Z,4.67
2017-11-27T06:50:03.580Z,4.67
2017-11-27T06:51:03.522Z,4.61
2017-11-27T06:52:03.466Z,4.54
2017-11-27T06:53:03.399Z,4.51
2017-11-27T06:54:03.324Z,4.47
2017-11-27T06:55:03.263Z,4.56
2017-11-27T06:56:03.193Z,4.53
2017-11-27T06:57:03.131Z,4.44
2017-11-27T06:58:03.073Z,4.49
2017-11-27T06:59:03.019Z,4.49
2017-11-27T07:00:02.951Z,4.51
2017-11-27T07:01:02.876Z,4.39
2017-11-27T07:02:02.807Z,4.29
2017-11-27T07:03:02.744Z,4.46
2017-11-27T07:04:02.682Z,4.34
2017-11-27T07:05:02.625Z,4.34
2017-11-27T07:06:02.565Z,4.31
2017-11-27T07:07:02.494Z,4.29
2017-11-27T07:08:02.423Z,4.35
2017-11-27T07:09:02.354Z,4.32
2017-11-27T07:10:02.293Z,4.35
2017-11-27T07:11:02.234Z,4.31
2017-11-27T07:12:02.176Z,4.31
2017-11-27T07:13:02.104Z,4.35
2017-11-27T07:14:02.036Z,4.31
2017-11-27T07:15:01.971Z,4.34
2017-11-27T07:16:01.905Z,4.32
2017-11-27T07:17:01.845Z,4.46
2017-11-27T07:18:01.785Z,4.32
2017-11-27T07:19:01.730Z,4.36
2017-11-27T07:20:01.652Z,4.34
2017-11-27T07:21:01.589Z,4.39
2017-11-27T07:22:01.522Z,4.35
2017-11-27T07:23:01.456Z,4.34
2017-11-27T07:24:01.396Z,4.31
2017-11-27T07:25:01.337Z,4.36
2017-11-27T07:26:01.281Z,4.39
2017-11-27T07:27:01.199Z,4.38
2017-11-27T07:28:01.135Z,4.46
2017-11-27T07:29:01.070Z,4.34
2017-11-27T07:30:01.007Z,4.50
2017-11-27T07:31:00.945Z,4.38
2017-11-27T07:32:00.881Z,4.50
2017-11-27T07:33:00.833Z,4.46
2017-11-27T07:34:00.756Z,4.49
2017-11-27T07:35:00.690Z,4.53
2017-11-27T07:36:00.618Z,4.50
2017-11-27T07:37:00.570Z,4.50
2017-11-27T07:38:00.494Z,4.51
2017-11-27T07:39:00.439Z,4.47
2017-11-27T07:40:00.364Z,4.56
2017-11-27T07:41:00.299Z,4.54
2017-11-27T07:42:00.228Z,4.62
2017-11-27T07:43:00.167Z,4.64
2017-11-27T07:44:00.108Z,4.72
2017-11-27T07:45:00.047Z,4.80
2017-11-27T07:45:59.992Z,4.91
2017-11-27T07:46:59.917Z,4.93
2017-11-27T07:47:59.850Z,5.05
2017-11-27T07:48:59.788Z,5.06
2017-11-27T07:49:59.719Z,5.05
2017-11-27T07:50:59.659Z,5.14
2017-11-27T07:51:59.607Z,5.19
2017-11-27T07:52:59.544Z,5.44
2017-11-27T07:53:59.464Z,5.98
2017-11-27T07:54:59.407Z,6.42
2017-11-27T07:55:59.335Z,6.81
2017-11-27T07:56:59.273Z,6.87
2017-11-27T07:57:59.214Z,6.72
2017-11-27T07:58:59.151Z,6.46
2017-11-27T07:59:59.095Z,6.28
2017-11-27T08:00:59.041Z,6.14
2017-11-27T08:01:58.969Z,6.19
2017-11-27T08:02:58.906Z,6.02
2017-11-27T08:03:58.833Z,5.96
2017-11-27T08:04:58.786Z,6.03
2017-11-27T08:05:58.712Z,6.61
2017-11-27T08:06:58.648Z,6.90
2017-11-27T08:07:58.592Z,6.50
2017-11-27T08:08:58.537Z,6.32
2017-11-27T08:09:58.513Z,6.08
2017-11-27T08:10:58.403Z,5.99
2017-11-27T08:11:58.379Z,5.95
2017-11-27T08:12:58.304Z,5.96
2017-11-27T08:13:58.202Z,6.69
2017-11-27T08:14:58.171Z,7.47
2017-11-27T08:15:58.118Z,7.99
2017-11-27T08:16:58.048Z,8.43
2017-11-27T08:17:57.965Z,8.54
2017-11-27T08:18:57.890Z,8.02
2017-11-27T08:19:57.845Z,7.79
2017-11-27T08:20:57.764Z,7.34
2017-11-27T08:21:57.707Z,7.26
2017-11-27T08:22:57.643Z,7.18
2017-11-27T08:23:57.595Z,7.15
2017-11-27T08:24:57.532Z,6.94
2017-11-27T08:25:57.479Z,7.14
2017-11-27T08:26:57.423Z,7.62
2017-11-27T08:27:57.347Z,7.34
2017-11-27T08:28:57.282Z,8.02
2017-11-27T08:29:57.207Z,8.07
2017-11-27T08:30:57.155Z,7.58
2017-11-27T08:31:57.100Z,7.27
2017-11-27T08:32:57.031Z,7.08
2017-11-27T08:33:56.975Z,6.83
2017-11-27T08:34:56.938Z,6.78
2017-11-27T08:35:56.838Z,6.63
2017-11-27T08:36:56.780Z,6.64
2017-11-27T08:37:56.767Z,6.63
2017-11-27T08:38:56.667Z,6.97
2017-11-27T08:39:56.616Z,7.19
2017-11-27T08:40:56.543Z,7.54
2017-11-27T08:41:56.536Z,7.71
2017-11-27T08:42:56.419Z,7.45
2017-11-27T08:43:56.370Z,7.32
2017-11-27T08:44:56.283Z,7.09
2017-11-27T08:45:56.273Z,6.97
2017-11-27T08:46:56.165Z,6.93
2017-11-27T08:47:56.099Z,6.78
2017-11-27T08:48:56.054Z,6.65
2017-11-27T08:49:55.973Z,6.58
2017-11-27T08:50:55.916Z,6.54
2017-11-27T08:51:55.897Z,6.46
2017-11-27T08:52:55.807Z,6.48
2017-11-27T08:53:55.748Z,6.53
2017-11-27T08:54:55.679Z,6.36
2017-11-27T08:55:55.634Z,6.33
2017-11-27T08:56:55.552Z,6.24
2017-11-27T08:57:55.481Z,6.17
2017-11-27T08:58:55.435Z,6.21
2017-11-27T08:59:55.366Z,6.17
2017-11-27T09:00:55.306Z,6.08
2017-11-27T09:01:55.255Z,5.96
2017-11-27T09:02:55.166Z,5.98
2017-11-27T09:03:55.115Z,5.87
2017-11-27T09:04:55.068Z,5.93
2017-11-27T09:05:55.028Z,5.85
2017-11-27T09:06:54.921Z,5.84
2017-11-27T09:07:54.874Z,5.78
2017-11-27T09:08:54.872Z,5.80
2017-11-27T09:09:54.756Z,5.78
2017-11-27T09:10:54.690Z,5.80
2017-11-27T09:11:54.614Z,5.78
2017-11-27T09:12:54.578Z,5.73
2017-11-27T09:13:54.497Z,5.75
2017-11-27T09:14:54.439Z,5.75
2017-11-27T09:15:54.379Z,5.69
2017-11-27T09:16:54.341Z,5.70
2017-11-27T09:17:54.242Z,5.74
2017-11-27T09:18:54.254Z,5.78
2017-11-27T09:19:54.157Z,5.95
2017-11-27T09:20:54.058Z,5.92
2017-11-27T09:21:54.027Z,5.90
2017-11-27T09:22:53.950Z,5.85
2017-11-27T09:23:53.878Z,5.88
2017-11-27T09:24:53.817Z,5.99
2017-11-27T09:25:53.778Z,5.90
2017-11-27T09:26:53.767Z,5.99
2017-11-27T09:27:53.631Z,5.98
2017-11-27T09:28:53.607Z,5.95
2017-11-27T09:29:53.501Z,5.96
2017-11-27T09:30:53.447Z,5.93
2017-11-27T09:31:53.370Z,6.03
2017-11-27T09:32:53.314Z,6.01
2017-11-27T09:33:53.279Z,6.03
2017-11-27T09:34:53.217Z,6.08
2017-11-27T09:35:53.135Z,6.05
2017-11-27T09:36:53.208Z,6.02
2017-11-27T09:37:52.992Z,6.05
2017-11-27T09:38:53.054Z,5.98
2017-11-27T09:39:52.916Z,6.08
2017-11-27T09:40:52.856Z,6.13
2017-11-27T09:41:52.751Z,6.17
2017-11-27T09:42:52.690Z,6.27
2017-11-27T09:43:52.648Z,6.27
2017-11-27T09:44:52.571Z,6.35
2017-11-27T09:45:52.515Z,6.36
2017-11-27T09:46:52.456Z,6.39
2017-11-27T09:47:52.443Z,6.32
2017-11-27T09:48:52.323Z,6.39
2017-11-27T09:49:52.325Z,6.30
2017-11-27T09:50:52.207Z,6.19
2017-11-27T09:51:52.171Z,6.11
2017-11-27T09:52:52.099Z,6.13
2017-11-27T09:53:52.025Z,5.92
2017-11-27T09:54:51.981Z,6.01
2017-11-27T09:55:51.902Z,5.96
2017-11-27T09:56:51.815Z,5.95
2017-11-27T09:57:51.740Z,6.08
2017-11-27T09:58:51.677Z,6.08
2017-11-27T09:59:51.652Z,6.17
2017-11-27T10:00:51.568Z,6.20
2017-11-27T10:01:51.480Z,6.25
2017-11-27T10:02:51.456Z,6.17
2017-11-27T10:03:51.361Z,6.20
2017-11-27T10:04:51.357Z,6.13
2017-11-27T10:05:51.241Z,6.20
2017-11-27T10:06:51.194Z,6.19
2017-11-27T10:07:51.149Z,6.20
2017-11-27T10:08:51.062Z,6.25
2017-11-27T10:09:51.012Z,6.21
2017-11-27T10:10:50.963Z,6.28
2017-11-27T10:11:50.900Z,6.25
2017-11-27T10:12:50.865Z,6.30
2017-11-27T10:13:50.816Z,6.43
2017-11-27T10:14:50.698Z,6.39
2017-11-27T10:15:50.688Z,6.42
2017-11-27T10:16:50.573Z,6.48
2017-11-27T10:17:50.521Z,6.48
2017-11-27T10:18:50.510Z,6.64
2017-11-27T10:19:50.367Z,6.57
2017-11-27T10:20:50.317Z,6.72
2017-11-27T10:21:50.281Z,6.63
2017-11-27T10:22:50.204Z,6.65
2017-11-27T10:23:50.171Z,6.63
2017-11-27T10:24:50.128Z,6.68
2017-11-27T10:25:50.008Z,6.73
2017-11-27T10:26:49.966Z,6.75
2017-11-27T10:27:49.894Z,6.61
2017-11-27T10:28:49.995Z,6.68
2017-11-27T10:29:49.781Z,6.78
2017-11-27T10:30:49.724Z,6.90
2017-11-27T10:31:49.676Z,6.96
2017-11-27T10:32:49.587Z,7.04
2017-11-27T10:33:49.524Z,7.08
2017-11-27T10:34:49.506Z,7.09
2017-11-27T10:35:49.422Z,7.07
2017-11-27T10:36:49.331Z,7.08
2017-11-27T10:37:49.287Z,7.09
2017-11-27T10:38:49.190Z,7.07
2017-11-27T10:39:49.166Z,7.09
2017-11-27T10:40:49.066Z,7.26
2017-11-27T10:41:49.040Z,7.26
2017-11-27T10:42:48.946Z,7.33
2017-11-27T10:43:48.889Z,7.24
2017-11-27T10:44:48.871Z,7.32
2017-11-27T10:45:48.809Z,7.39
2017-11-27T10:46:48.715Z,7.32
2017-11-27T10:47:48.669Z,7.37
2017-11-27T10:48:48.616Z,7.48
2017-11-27T10:49:48.519Z,7.41
2017-11-27T10:50:48.468Z,7.23
2017-11-27T10:51:48.465Z,7.34
2017-11-27T10:52:48.352Z,7.24
2017-11-27T10:53:48.319Z,7.23
2017-11-27T10:54:48.322Z,7.24
2017-11-27T10:55:48.209Z,7.27
2017-11-27T10:56:48.129Z,7.33
2017-11-27T10:57:48.052Z,7.34
2017-11-27T10:58:47.985Z,7.42
2017-11-27T10:59:47.941Z,7.42
2017-11-27T11:00:47.887Z,7.45
2017-11-27T11:01:47.802Z,7.48
2017-11-27T11:02:47.779Z,7.60
2017-11-27T11:03:47.664Z,7.47
2017-11-27T11:04:47.635Z,7.48
2017-11-27T11:05:47.554Z,7.58
2017-11-27T11:06:47.526Z,7.70
2017-11-27T11:07:47.442Z,7.67
2017-11-27T11:08:47.384Z,7.60
2017-11-27T11:09:47.351Z,7.44
2017-11-27T11:10:47.236Z,7.50
2017-11-27T11:11:47.182Z,7.66
2017-11-27T11:12:47.159Z,7.48
2017-11-27T11:13:47.134Z,7.57
2017-11-27T11:14:47.027Z,7.47
2017-11-27T11:15:46.986Z,7.44
2017-11-27T11:16:46.902Z,7.57
2017-11-27T11:17:46.838Z,7.57
2017-11-27T11:18:46.779Z,7.62
2017-11-27T11:19:46.789Z,7.62
2017-11-27T11:20:46.665Z,7.57
2017-11-27T11:21:46.578Z,7.48
2017-11-27T11:22:46.520Z,7.45
2017-11-27T11:23:46.480Z,7.42
2017-11-27T11:24:46.417Z,7.52
2017-11-27T11:25:46.350Z,7.50
2017-11-27T11:26:46.296Z,7.39
2017-11-27T11:27:46.230Z,7.39
2017-11-27T11:28:46.160Z,7.45
2017-11-27T11:29:46.140Z,7.47
2017-11-27T11:30:46.011Z,7.57
2017-11-27T11:31:45.974Z,7.41
2017-11-27T11:32:45.904Z,7.39
2017-11-27T11:33:45.847Z,7.42
2017-11-27T11:34:45.804Z,7.42
2017-11-27T11:35:45.720Z,7.57
2017-11-27T11:36:45.662Z,7.52
2017-11-27T11:37:45.602Z,7.44
2017-11-27T11:38:45.553Z,7.37
2017-11-27T11:39:45.526Z,7.37
2017-11-27T11:40:45.462Z,7.30
2017-11-27T11:41:45.329Z,7.44
2017-11-27T11:42:45.291Z,7.42
2017-11-27T11:43:45.209Z,7.34
2017-11-27T11:44:45.182Z,7.34
2017-11-27T11:45:45.113Z,7.39
2017-11-27T11:46:45.055Z,7.50
2017-11-27T11:47:44.992Z,7.41
2017-11-27T11:48:44.906Z,7.45
2017-11-27T11:49:44.843Z,7.44
2017-11-27T11:50:44.812Z,7.47
2017-11-27T11:51:44.721Z,7.47
2017-11-27T11:52:44.682Z,7.52
2017-11-27T11:53:44.633Z,7.52
2017-11-27T11:54:44.554Z,7.57
2017-11-27T11:55:44.547Z,7.50
2017-11-27T11:56:44.439Z,7.66
2017-11-27T11:57:44.443Z,7.47
2017-11-27T11:58:44.349Z,7.41
2017-11-27T11:59:44.249Z,7.42
2017-11-27T12:00:44.170Z,7.42
2017-11-27T12:01:44.133Z,7.45
2017-11-27T12:02:44.050Z,7.47
2017-11-27T12:03:44.113Z,7.48
2017-11-27T12:04:43.961Z,7.41
2017-11-27T12:05:43.907Z,7.42
2017-11-27T12:06:43.823Z,7.39
2017-11-27T12:07:43.967Z,7.41
2017-11-27T12:08:43.714Z,7.37
2017-11-27T12:09:43.602Z,7.42
2017-11-27T12:10:43.620Z,7.44
2017-11-27T12:11:43.520Z,7.50
2017-11-27T12:12:43.437Z,7.48
2017-11-27T12:13:43.374Z,7.51
2017-11-27T12:14:43.342Z,7.52
2017-11-27T12:15:43.266Z,7.48
2017-11-27T12:16:43.224Z,7.48
2017-11-27T12:17:43.129Z,7.50
2017-11-27T12:18:43.050Z,7.54
2017-11-27T12:19:42.998Z,7.62
2017-11-27T12:20:42.931Z,7.60
2017-11-27T12:21:42.876Z,7.66
2017-11-27T12:22:42.829Z,7.60
2017-11-27T12:23:42.786Z,7.52
2017-11-27T12:24:42.720Z,7.54
2017-11-27T12:25:42.626Z,7.51
2017-11-27T12:26:42.553Z,7.47
2017-11-27T12:27:42.561Z,7.47
2017-11-27T12:28:42.462Z,7.41
2017-11-27T12:29:42.389Z,7.47
2017-11-27T12:30:42.318Z,7.36
2017-11-27T12:31:42.301Z,7.29
2017-11-27T12:32:42.231Z,7.27
2017-11-27T12:33:42.199Z,7.19
2017-11-27T12:34:42.099Z,7.19
2017-11-27T12:35:42.017Z,7.19
2017-11-27T12:36:41.970Z,7.16
2017-11-27T12:37:41.937Z,7.19
2017-11-27T12:38:41.818Z,7.23
2017-11-27T12:39:41.776Z,7.23
2017-11-27T12:40:41.716Z,7.12
2017-11-27T12:41:41.692Z,7.15
2017-11-27T12:42:41.606Z,7.15
2017-11-27T12:43:41.538Z,7.18
2017-11-27T12:44:41.483Z,7.24
2017-11-27T12:45:41.408Z,7.29
2017-11-27T12:46:41.383Z,7.26
2017-11-27T12:47:41.297Z,7.29
2017-11-27T12:48:41.228Z,7.32
2017-11-27T12:49:41.163Z,7.34
2017-11-27T12:50:41.092Z,7.33
2017-11-27T12:51:41.037Z,7.24
2017-11-27T12:52:40.959Z,7.36
2017-11-27T12:53:40.910Z,7.30
2017-11-27T12:54:40.820Z,7.33
2017-11-27T12:55:40.794Z,7.32
2017-11-27T12:56:40.735Z,7.18
2017-11-27T12:57:40.650Z,7.27
2017-11-27T12:58:40.668Z,7.15
2017-11-27T12:59:40.534Z,7.16
2017-11-27T13:00:40.508Z,7.15
2017-11-27T13:01:40.424Z,7.21
2017-11-27T13:02:40.353Z,7.19
2017-11-27T13:03:40.285Z,7.21
2017-11-27T13:04:40.241Z,7.21
2017-11-27T13:05:40.171Z,7.01
2017-11-27T13:06:40.110Z,7.07
2017-11-27T13:07:40.034Z,7.04
2017-11-27T13:08:39.982Z,7.11
2017-11-27T13:09:39.907Z,7.00
2017-11-27T13:10:39.842Z,7.12
2017-11-27T13:11:39.779Z,7.09
2017-11-27T13:12:39.742Z,7.09
2017-11-27T13:13:39.644Z,7.09
2017-11-27T13:14:39.616Z,7.05
2017-11-27T13:15:39.534Z,7.07
2017-11-27T13:16:39.495Z,7.05
2017-11-27T13:17:39.438Z,6.96